createdAt,value
2018-07-01T00:00:00.877Z,20.50
2018-07-01T00:02:28.572Z,20.50
2018-07-01T00:04:56.301Z,20.60
2018-07-01T00:07:24.117Z,20.60
2018-07-01T00:09:51.890Z,20.70
2018-07-01T00:12:19.628Z,20.60
2018-07-01T00:14:47.400Z,20.60
2018-07-01T00:17:15.088Z,20.60
2018-07-01T00:19:42.837Z,20.60
2018-07-01T00:22:10.548Z,20.70
2018-07-01T00:24:38.237Z,20.60
2018-07-01T00:27:05.989Z,20.60
2018-07-01T00:29:33.687Z,20.60
2018-07-01T00:32:01.437Z,20.60
2018-07-01T00:34:29.119Z,20.50
2018-07-01T00:36:56.872Z,20.40
2018-07-01T00:39:24.535Z,20.30
2018-07-01T00:41:52.271Z,20.20
2018-07-01T00:44:20.005Z,20.10
2018-07-01T00:46:47.707Z,20.10
2018-07-01T00:49:15.391Z,20.00
2018-07-01T00:51:43.205Z,19.90
2018-07-01T00:54:10.882Z,19.90
2018-07-01T00:56:38.591Z,19.70
2018-07-01T00:59:06.317Z,19.60
2018-07-01T01:01:34.052Z,19.50
2018-07-01T01:04:01.740Z,19.60
2018-07-01T01:06:29.476Z,19.60
2018-07-01T01:08:57.150Z,19.50
2018-07-01T01:11:24.849Z,19.50
2018-07-01T01:13:52.524Z,19.50
2018-07-01T01:16:20.316Z,19.50
2018-07-01T01:18:48.038Z,19.50
2018-07-01T01:21:15.827Z,19.40
2018-07-01T01:23:43.527Z,19.40
2018-07-01T01:26:11.292Z,19.40
2018-07-01T01:28:39.008Z,19.30
2018-07-01T01:31:06.799Z,19.20
2018-07-01T01:33:34.548Z,19.30
2018-07-01T01:36:02.285Z,19.30
2018-07-01T01:38:32.046Z,19.40
2018-07-01T01:41:05.104Z,19.30
2018-07-01T01:43:37.494Z,19.30
2018-07-01T01:46:11.092Z,19.30
2018-07-01T01:48:43.563Z,19.30
2018-07-01T01:51:30.666Z,19.30
2018-07-01T01:54:05.319Z,19.30
2018-07-01T01:56:38.208Z,19.30
2018-07-01T01:59:14.264Z,19.30
2018-07-01T02:02:21.846Z,19.30
2018-07-01T02:04:57.889Z,19.30
2018-07-01T02:07:35.248Z,19.20
2018-07-01T02:10:03.068Z,19.20
2018-07-01T02:12:30.799Z,19.20
2018-07-01T02:15:01.245Z,19.10
2018-07-01T02:17:32.526Z,19.00
2018-07-01T02:20:00.279Z,19.00
2018-07-01T02:22:33.085Z,18.90
2018-07-01T02:25:02.637Z,18.80
2018-07-01T02:27:30.400Z,18.70
2018-07-01T02:29:58.169Z,18.80
2018-07-01T02:32:25.821Z,18.80
2018-07-01T02:34:53.491Z,18.60
2018-07-01T02:37:21.171Z,18.60
2018-07-01T02:39:48.837Z,18.50
2018-07-01T02:42:16.508Z,18.40
2018-07-01T02:44:44.168Z,18.30
2018-07-01T02:47:11.853Z,18.30
2018-07-01T02:49:39.517Z,18.30
2018-07-01T02:52:07.195Z,18.20
2018-07-01T02:54:34.877Z,18.20
2018-07-01T02:57:02.549Z,18.20
2018-07-01T02:59:30.247Z,18.20
2018-07-01T03:01:57.968Z,18.20
2018-07-01T03:04:25.615Z,18.20
2018-07-01T03:06:53.308Z,18.20
2018-07-01T03:09:21.020Z,18.20
2018-07-01T03:11:48.724Z,18.20
2018-07-01T03:14:16.360Z,18.20
2018-07-01T03:16:44.041Z,18.20
2018-07-01T03:19:11.733Z,18.20
2018-07-01T03:21:39.491Z,18.20
2018-07-01T03:24:07.153Z,18.10
2018-07-01T03:26:34.806Z,18.00
2018-07-01T03:29:02.479Z,18.00
2018-07-01T03:31:30.204Z,17.90
2018-07-01T03:33:57.899Z,17.80
2018-07-01T03:36:25.646Z,17.70
2018-07-01T03:38:53.319Z,17.70
2018-07-01T03:41:20.996Z,17.60
2018-07-01T03:43:48.700Z,17.50
2018-07-01T03:46:16.365Z,17.40
2018-07-01T03:48:44.056Z,17.40
2018-07-01T03:51:11.704Z,17.30
2018-07-01T03:53:39.404Z,17.40
2018-07-01T03:56:07.096Z,17.30
2018-07-01T03:58:34.800Z,17.30
2018-07-01T04:01:02.530Z,17.30
2018-07-01T04:03:30.264Z,17.30
2018-07-01T04:05:57.919Z,17.30
2018-07-01T04:08:25.587Z,17.30
2018-07-01T04:10:53.272Z,17.30
2018-07-01T04:13:21.064Z,17.30
2018-07-01T04:15:48.800Z,17.30
2018-07-01T04:18:16.520Z,17.30
2018-07-01T04:20:44.204Z,17.40
2018-07-01T04:23:11.855Z,17.40
2018-07-01T04:25:39.655Z,17.40
2018-07-01T04:28:07.320Z,17.40
2018-07-01T04:30:35.033Z,17.30
2018-07-01T04:33:02.703Z,17.20
2018-07-01T04:35:30.356Z,17.20
2018-07-01T04:37:58.071Z,17.30
2018-07-01T04:40:25.730Z,17.30
2018-07-01T04:42:53.411Z,17.30
2018-07-01T04:45:21.081Z,17.40
2018-07-01T04:47:48.744Z,17.40
2018-07-01T04:50:16.386Z,17.40
2018-07-01T04:52:44.057Z,17.40
2018-07-01T04:55:11.811Z,17.40
2018-07-01T04:57:39.481Z,17.40
2018-07-01T05:00:07.216Z,17.30
2018-07-01T05:02:35.012Z,17.40
2018-07-01T05:05:02.665Z,17.30
2018-07-01T05:07:30.386Z,17.40
2018-07-01T05:09:58.015Z,17.50
2018-07-01T05:12:25.704Z,17.50
2018-07-01T05:14:53.354Z,17.50
2018-07-01T05:17:21.064Z,17.40
2018-07-01T05:19:48.700Z,17.40
2018-07-01T05:22:16.364Z,17.40
2018-07-01T05:24:44.048Z,17.40
2018-07-01T05:27:11.716Z,17.40
2018-07-01T05:29:39.423Z,17.40
2018-07-01T05:32:07.081Z,17.40
2018-07-01T05:34:34.885Z,17.40
2018-07-01T05:37:02.618Z,17.50
2018-07-01T05:39:30.308Z,17.50
2018-07-01T05:41:58.008Z,17.60
2018-07-01T05:44:25.707Z,17.60
2018-07-01T05:46:53.384Z,17.70
2018-07-01T05:49:21.108Z,17.80
2018-07-01T05:51:48.744Z,17.80
2018-07-01T05:54:16.416Z,17.80
2018-07-01T05:56:44.115Z,17.80
2018-07-01T05:59:11.872Z,17.90
2018-07-01T06:01:39.695Z,18.00
2018-07-01T06:04:07.450Z,18.10
2018-07-01T06:06:35.123Z,18.00
2018-07-01T06:09:03.027Z,18.10
2018-07-01T06:11:30.702Z,18.10
2018-07-01T06:13:58.416Z,18.20
2018-07-01T06:16:26.171Z,18.20
2018-07-01T06:18:53.791Z,18.30
2018-07-01T06:21:21.405Z,18.30
2018-07-01T06:23:49.069Z,18.40
2018-07-01T06:26:16.679Z,18.40
2018-07-01T06:28:44.370Z,18.50
2018-07-01T06:31:12.037Z,18.60
2018-07-01T06:33:39.723Z,18.50
2018-07-01T06:36:07.438Z,18.60
2018-07-01T06:38:35.123Z,18.60
2018-07-01T06:41:02.847Z,18.70
2018-07-01T06:43:30.489Z,18.80
2018-07-01T06:45:58.157Z,18.80
2018-07-01T06:48:25.841Z,18.80
2018-07-01T06:50:53.509Z,18.90
2018-07-01T06:53:21.160Z,19.00
2018-07-01T06:55:48.833Z,19.00
2018-07-01T06:58:16.543Z,19.10
2018-07-01T07:00:44.824Z,19.10
2018-07-01T07:03:12.536Z,19.20
2018-07-01T07:05:40.264Z,19.30
2018-07-01T07:08:08.092Z,19.30
2018-07-01T07:10:35.673Z,19.40
2018-07-01T07:13:03.386Z,19.40
2018-07-01T07:15:31.092Z,19.50
2018-07-01T07:17:58.789Z,19.70
2018-07-01T07:20:26.525Z,19.70
2018-07-01T07:22:54.222Z,19.80
2018-07-01T07:25:22.655Z,19.70
2018-07-01T07:27:50.789Z,19.80
2018-07-01T07:30:18.810Z,19.90
2018-07-01T07:32:46.525Z,20.00
2018-07-01T07:35:14.240Z,20.10
2018-07-01T07:37:42.264Z,20.20
2018-07-01T07:40:09.960Z,20.30
2018-07-01T07:42:37.680Z,20.40
2018-07-01T07:45:05.509Z,20.40
2018-07-01T07:47:33.977Z,20.50
2018-07-01T07:50:01.664Z,20.50
2018-07-01T07:52:29.411Z,20.60
2018-07-01T07:54:57.116Z,20.60
2018-07-01T07:57:24.884Z,20.60
2018-07-01T07:59:52.601Z,20.80
2018-07-01T08:02:20.456Z,20.80
2018-07-01T08:04:48.168Z,20.90
2018-07-01T08:07:15.918Z,21.00
2018-07-01T08:09:43.789Z,21.10
2018-07-01T08:12:11.865Z,21.20
2018-07-01T08:14:39.591Z,21.30
2018-07-01T08:17:07.371Z,21.50
2018-07-01T08:19:35.108Z,21.40
2018-07-01T08:22:02.825Z,21.50
2018-07-01T08:24:30.524Z,21.60
2018-07-01T08:26:58.277Z,21.60
2018-07-01T08:29:26.037Z,21.80
2018-07-01T08:31:53.795Z,21.80
2018-07-01T08:34:21.491Z,21.90
2018-07-01T08:36:49.213Z,22.00
2018-07-01T08:39:16.923Z,22.10
2018-07-01T08:42:26.308Z,22.10
2018-07-01T08:44:54.661Z,22.30
2018-07-01T08:47:22.480Z,22.30
2018-07-01T08:49:50.228Z,22.30
2018-07-01T08:52:18.116Z,22.40
2018-07-01T08:54:45.825Z,22.50
2018-07-01T08:57:15.016Z,22.70
2018-07-01T08:59:43.524Z,22.70
2018-07-01T09:02:11.268Z,22.80
2018-07-01T09:04:39.134Z,22.90
2018-07-01T09:07:06.915Z,23.00
2018-07-01T09:09:34.648Z,23.10
2018-07-01T09:12:02.596Z,23.10
2018-07-01T09:14:31.116Z,23.10
2018-07-01T09:16:58.966Z,23.20
2018-07-01T09:19:26.677Z,23.40
2018-07-01T09:21:54.681Z,23.40
2018-07-01T09:24:22.465Z,23.60
2018-07-01T09:26:51.168Z,23.70
2018-07-01T09:29:18.909Z,23.90
2018-07-01T09:31:49.740Z,23.90
2018-07-01T09:34:19.249Z,24.10
2018-07-01T09:36:47.651Z,24.20
2018-07-01T09:39:15.882Z,24.40
2018-07-01T09:41:43.666Z,24.50
2018-07-01T09:44:11.373Z,24.60
2018-07-01T09:46:39.092Z,24.80
2018-07-01T14:12:59.845Z,24.90
2018-07-01T14:15:27.623Z,31.10
2018-07-01T14:17:55.421Z,30.80
2018-07-01T14:20:23.230Z,30.70
2018-07-01T14:22:51.841Z,30.60
2018-07-01T14:25:19.682Z,30.60
2018-07-01T14:27:47.444Z,30.50
2018-07-01T14:30:15.171Z,30.40
2018-07-01T14:32:42.931Z,30.40
2018-07-01T14:35:10.707Z,30.30
2018-07-01T14:37:38.489Z,30.20
2018-07-01T14:40:06.264Z,30.20
2018-07-01T14:42:34.868Z,30.00
2018-07-01T14:45:03.653Z,29.90
2018-07-01T14:47:31.749Z,29.90
2018-07-01T14:49:59.519Z,30.00
2018-07-01T14:52:27.662Z,30.10
2018-07-01T14:54:56.213Z,30.20
2018-07-01T14:57:25.375Z,30.20
2018-07-01T14:59:53.164Z,30.30
2018-07-01T15:02:20.960Z,30.30
2018-07-01T15:04:48.740Z,30.20
2018-07-01T15:07:17.748Z,30.20
2018-07-01T15:09:52.924Z,30.20
2018-07-01T15:12:21.905Z,30.10
2018-07-01T15:14:49.890Z,30.00
2018-07-01T15:17:17.677Z,29.80
2018-07-01T15:19:46.712Z,29.70
2018-07-01T15:22:15.144Z,29.50
2018-07-01T15:24:43.591Z,29.50
2018-07-01T15:27:11.335Z,29.50
2018-07-01T15:29:39.069Z,29.40
2018-07-01T15:32:07.009Z,29.40
2018-07-01T15:34:34.709Z,29.20
2018-07-01T15:37:02.512Z,29.10
2018-07-01T15:39:30.256Z,29.10
2018-07-01T15:41:57.962Z,28.90
2018-07-01T15:44:25.682Z,28.70
2018-07-01T15:46:53.400Z,28.70
2018-07-01T15:49:21.157Z,28.80
2018-07-01T15:51:48.920Z,28.80
2018-07-01T15:54:16.636Z,28.70
2018-07-01T15:56:44.380Z,28.80
2018-07-01T15:59:12.064Z,28.80
2018-07-01T16:01:39.780Z,28.60
2018-07-01T16:04:07.495Z,28.70
2018-07-01T16:06:35.253Z,28.80
2018-07-01T16:09:03.713Z,28.80
2018-07-01T16:11:31.437Z,28.80
2018-07-01T16:13:59.376Z,28.80
2018-07-01T16:16:27.121Z,28.70
2018-07-01T16:18:54.855Z,28.60
2018-07-01T16:21:22.575Z,28.50
2018-07-01T16:23:50.301Z,28.50
2018-07-01T16:26:23.532Z,28.50
2018-07-01T16:28:56.690Z,28.40
2018-07-01T16:31:24.395Z,28.40
2018-07-01T16:33:52.094Z,28.30
2018-07-01T16:36:19.808Z,28.30
2018-07-01T16:38:48.172Z,28.20
2018-07-01T16:41:15.877Z,28.10
2018-07-01T16:43:43.566Z,28.10
2018-07-01T16:46:11.307Z,28.00
2018-07-01T16:48:39.080Z,28.00
2018-07-01T16:51:06.930Z,28.00
2018-07-01T16:53:34.685Z,28.00
2018-07-01T16:56:02.401Z,27.90
2018-07-01T16:58:30.087Z,27.80
2018-07-01T17:00:57.870Z,27.80
2018-07-01T17:03:25.560Z,27.70
2018-07-01T17:05:53.265Z,27.60
2018-07-01T17:08:20.972Z,27.50
2018-07-01T17:10:48.703Z,27.40
2018-07-01T17:13:16.442Z,27.30
2018-07-01T17:15:44.205Z,27.30
2018-07-01T17:18:11.893Z,27.20
2018-07-01T17:20:39.605Z,27.00
2018-07-01T17:23:07.888Z,26.90
2018-07-01T17:25:47.805Z,26.80
2018-07-01T17:28:16.055Z,26.80
2018-07-01T17:30:43.740Z,26.80
2018-07-01T17:33:17.057Z,26.90
2018-07-01T17:35:44.777Z,26.90
2018-07-01T17:38:12.531Z,26.80
2018-07-01T17:40:40.517Z,26.70
2018-07-01T17:43:08.289Z,26.60
2018-07-01T17:45:36.110Z,26.60
2018-07-01T17:48:03.938Z,26.50
2018-07-01T17:50:31.687Z,26.50
2018-07-01T17:52:59.670Z,26.30
2018-07-01T17:55:27.399Z,26.10
2018-07-01T17:57:55.263Z,26.10
2018-07-01T18:00:23.129Z,26.10
2018-07-01T18:02:50.887Z,26.10
2018-07-01T18:05:18.666Z,25.90
2018-07-01T18:07:46.412Z,25.70
2018-07-01T18:10:14.482Z,25.70
2018-07-01T18:12:42.237Z,25.70
2018-07-01T18:15:10.028Z,25.60
2018-07-01T18:17:37.773Z,25.60
2018-07-01T18:20:05.686Z,25.60
2018-07-01T18:22:52.498Z,25.50
2018-07-01T18:25:08.613Z,25.50
2018-07-01T18:27:29.004Z,25.40
2018-07-01T18:29:56.776Z,25.30
2018-07-01T18:32:24.540Z,25.30
2018-07-01T18:34:52.325Z,25.20
2018-07-01T18:37:20.019Z,25.10
2018-07-01T18:39:47.847Z,25.10
2018-07-01T18:42:15.633Z,25.00
2018-07-01T18:44:46.361Z,24.90
2018-07-01T18:47:14.064Z,24.80
2018-07-01T18:49:41.821Z,24.70
2018-07-01T18:52:09.593Z,24.70
2018-07-01T18:54:37.355Z,24.70
2018-07-01T18:57:05.109Z,24.70
2018-07-01T18:59:32.837Z,24.70
2018-07-01T19:02:00.637Z,24.60
2018-07-01T19:04:28.524Z,24.50
2018-07-01T19:06:56.312Z,24.60
2018-07-01T19:09:24.140Z,24.50
2018-07-01T19:11:51.932Z,24.40
2018-07-01T19:14:19.665Z,24.30
2018-07-01T19:16:47.464Z,24.20
2018-07-01T19:19:15.204Z,24.10
2018-07-01T19:21:42.981Z,24.10
2018-07-01T19:24:10.698Z,24.00
2018-07-01T19:26:38.413Z,24.00
2018-07-01T19:29:06.136Z,23.90
2018-07-01T19:31:33.888Z,23.80
2018-07-01T19:34:01.639Z,23.70
2018-07-01T19:36:29.440Z,23.70
2018-07-01T19:38:57.189Z,23.60
2018-07-01T19:41:24.968Z,23.50
2018-07-01T19:43:52.686Z,23.50
2018-07-01T19:46:20.497Z,23.40
2018-07-01T19:48:48.264Z,23.30
2018-07-01T19:51:16.010Z,23.30
2018-07-01T19:53:43.777Z,23.30
2018-07-01T19:56:11.521Z,23.10
2018-07-01T19:58:39.233Z,23.10
2018-07-01T20:01:07.057Z,23.00
2018-07-01T20:03:34.789Z,23.10
2018-07-01T20:06:02.508Z,23.00
2018-07-01T20:08:30.233Z,23.00
2018-07-01T20:10:57.995Z,22.90
2018-07-01T20:13:25.774Z,22.90
2018-07-01T20:15:53.520Z,22.80
2018-07-01T20:18:21.265Z,22.80
2018-07-01T20:20:48.947Z,22.80
2018-07-01T20:23:16.692Z,22.80
2018-07-01T20:25:44.432Z,22.70
2018-07-01T20:28:12.189Z,22.70
2018-07-01T20:30:39.926Z,22.80
2018-07-01T20:33:07.700Z,22.80
2018-07-01T20:35:35.464Z,22.80
2018-07-01T20:38:03.176Z,22.80
2018-07-01T20:40:30.962Z,22.80
2018-07-01T20:42:58.670Z,22.70
2018-07-01T20:45:26.435Z,22.70
2018-07-01T20:47:54.145Z,22.70
2018-07-01T20:50:21.882Z,22.70
2018-07-01T20:52:49.592Z,22.60
2018-07-01T20:55:17.344Z,22.70
2018-07-01T20:57:45.202Z,22.70
2018-07-01T21:00:12.991Z,22.60
2018-07-01T21:02:40.696Z,22.50
2018-07-01T21:05:08.442Z,22.50
2018-07-01T21:07:36.168Z,22.50
2018-07-01T21:10:04.023Z,22.40
2018-07-01T21:12:31.718Z,22.30
2018-07-01T21:14:59.507Z,22.30
2018-07-01T21:17:27.337Z,22.20
2018-07-01T21:19:55.114Z,22.30
2018-07-01T21:22:22.809Z,22.20
2018-07-01T21:24:50.506Z,22.20
2018-07-01T21:27:18.273Z,22.30
2018-07-01T21:29:45.996Z,22.20
2018-07-01T21:32:13.728Z,22.10
2018-07-01T21:34:41.464Z,22.10
2018-07-01T21:37:09.217Z,21.90
2018-07-01T21:39:36.948Z,22.00
2018-07-01T21:42:04.700Z,22.00
2018-07-01T21:44:32.451Z,21.90
2018-07-01T21:47:00.218Z,21.80
2018-07-01T21:49:27.962Z,21.70
2018-07-01T21:51:55.660Z,21.70
2018-07-01T21:54:23.415Z,21.70
2018-07-01T21:56:51.212Z,21.40
2018-07-01T21:59:18.980Z,21.30
2018-07-01T22:01:46.749Z,21.10
2018-07-01T22:04:14.520Z,21.10
2018-07-01T22:06:47.760Z,21.10
2018-07-01T22:09:15.480Z,21.10
2018-07-01T22:12:00.208Z,21.00
2018-07-01T22:14:35.785Z,21.00
2018-07-01T22:17:04.652Z,21.10
2018-07-01T22:19:32.642Z,21.00
2018-07-01T22:22:00.764Z,21.00
2018-07-01T22:24:29.643Z,21.00
2018-07-01T22:26:57.354Z,21.00
2018-07-01T22:29:25.044Z,21.00
2018-07-01T22:31:52.805Z,20.90
2018-07-01T22:34:20.914Z,20.90
2018-07-01T22:36:49.008Z,20.90
2018-07-01T22:39:19.701Z,20.90
2018-07-01T22:41:48.072Z,20.90
2018-07-01T22:44:15.798Z,20.80
2018-07-01T22:46:44.292Z,20.70
2018-07-01T22:49:12.057Z,20.50
2018-07-01T22:51:39.801Z,20.40
2018-07-01T22:54:07.547Z,20.40
2018-07-01T22:56:35.490Z,20.30
2018-07-01T22:59:03.296Z,20.20
2018-07-01T23:01:31.370Z,20.20
2018-07-01T23:03:59.129Z,20.20
2018-07-01T23:06:27.257Z,20.20
2018-07-01T23:08:55.032Z,20.20
2018-07-01T23:11:22.699Z,20.20
2018-07-01T23:13:50.444Z,20.20
2018-07-01T23:16:18.141Z,20.10
2018-07-01T23:18:45.884Z,20.00
2018-07-01T23:21:13.804Z,20.00
2018-07-01T23:23:41.512Z,19.90
2018-07-01T23:26:09.227Z,20.00
2018-07-01T23:28:36.963Z,19.90
2018-07-01T23:31:04.702Z,20.00
2018-07-01T23:33:32.536Z,20.00
2018-07-01T23:36:00.264Z,19.90
2018-07-01T23:38:27.963Z,19.90
2018-07-01T23:40:55.679Z,19.80
2018-07-01T23:43:23.443Z,19.70
2018-07-01T23:45:51.174Z,19.50
2018-07-01T23:48:18.907Z,19.50
2018-07-01T23:50:46.653Z,19.50
2018-07-01T23:53:14.360Z,19.40
2018-07-01T23:55:42.068Z,19.40
2018-07-01T23:58:09.803Z,19.40
